createdAt,value
2018-05-12T00:00:26.631Z,11.32
2018-05-12T00:01:29.131Z,23.10
2018-05-12T00:02:31.638Z,15.57
2018-05-12T00:03:34.159Z,14.60
2018-05-12T00:04:37.445Z,13.32
2018-05-12T00:05:40.714Z,15.50
2018-05-12T00:06:43.232Z,13.38
2018-05-12T00:07:45.728Z,12.88
2018-05-12T00:08:48.249Z,11.75
2018-05-12T00:09:51.534Z,12.88
2018-05-12T00:10:54.813Z,16.62
2018-05-12T00:11:58.102Z,14.15
2018-05-12T00:13:01.375Z,11.45
2018-05-12T00:14:04.669Z,13.57
2018-05-12T00:15:07.187Z,11.48
2018-05-12T00:16:09.685Z,12.30
2018-05-12T00:17:12.189Z,14.35
2018-05-12T00:18:15.455Z,15.07
2018-05-12T00:19:17.962Z,17.55
2018-05-12T00:20:20.483Z,15.18
2018-05-12T00:21:22.996Z,15.30
2018-05-12T00:22:26.272Z,13.98
2018-05-12T00:23:29.529Z,16.15
2018-05-12T00:24:32.044Z,11.48
2018-05-12T00:25:35.322Z,11.15
2018-05-12T00:26:38.575Z,15.27
2018-05-12T00:27:41.069Z,14.35
2018-05-12T00:28:43.576Z,15.23
2018-05-12T00:29:46.092Z,11.05
2018-05-12T00:30:48.607Z,18.05
2018-05-12T00:31:51.125Z,12.15
2018-05-12T00:32:53.645Z,12.13
2018-05-12T00:33:56.146Z,12.75
2018-05-12T00:34:58.653Z,10.80
2018-05-12T00:36:01.169Z,13.23
2018-05-12T00:37:03.678Z,14.35
2018-05-12T00:38:06.184Z,14.30
2018-05-12T00:39:09.466Z,13.40
2018-05-12T00:40:11.953Z,16.02
2018-05-12T00:41:15.257Z,15.32
2018-05-12T00:42:17.762Z,11.85
2018-05-12T00:43:20.267Z,12.95
2018-05-12T00:44:22.777Z,11.85
2018-05-12T00:45:25.289Z,15.20
2018-05-12T00:46:27.803Z,15.93
2018-05-12T00:47:30.308Z,17.55
2018-05-12T00:48:32.802Z,20.95
2018-05-12T00:49:35.299Z,12.57
2018-05-12T00:50:38.590Z,14.38
2018-05-12T00:51:41.104Z,18.42
2018-05-12T00:52:43.629Z,20.85
2018-05-12T00:53:46.907Z,18.27
2018-05-12T00:54:50.162Z,16.67
2018-05-12T00:55:52.670Z,12.90
2018-05-12T00:56:55.936Z,20.62
2018-05-12T00:57:58.441Z,15.35
2018-05-12T00:59:00.967Z,14.70
2018-05-12T01:00:03.470Z,11.70
2018-05-12T01:01:06.777Z,17.10
2018-05-12T01:02:09.302Z,20.48
2018-05-12T01:03:11.797Z,15.90
2018-05-12T01:04:15.059Z,14.73
2018-05-12T01:05:17.593Z,13.68
2018-05-12T01:06:20.103Z,14.32
2018-05-12T01:07:22.629Z,15.40
2018-05-12T01:08:25.126Z,15.02
2018-05-12T01:09:27.659Z,14.40
2018-05-12T01:10:30.168Z,20.60
2018-05-12T01:11:32.703Z,16.20
2018-05-12T01:12:35.211Z,15.13
2018-05-12T01:13:37.775Z,17.48
2018-05-12T01:14:40.248Z,21.37
2018-05-12T01:15:42.749Z,12.02
2018-05-12T01:16:45.268Z,14.07
2018-05-12T01:17:47.777Z,18.42
2018-05-12T01:18:50.283Z,12.70
2018-05-12T01:19:53.543Z,16.02
2018-05-12T01:20:56.032Z,20.85
2018-05-12T01:21:59.304Z,13.70
2018-05-12T01:23:01.831Z,15.70
2018-05-12T01:24:04.336Z,14.52
2018-05-12T01:25:07.612Z,16.15
2018-05-12T01:26:10.140Z,12.75
2018-05-12T01:27:12.636Z,14.38
2018-05-12T01:28:15.144Z,14.20
2018-05-12T01:29:17.641Z,13.55
2018-05-12T01:30:20.170Z,16.30
2018-05-12T01:31:22.676Z,15.68
2018-05-12T01:32:25.953Z,16.35
2018-05-12T01:33:28.493Z,16.17
2018-05-12T01:34:31.009Z,19.70
2018-05-12T01:35:34.305Z,14.23
2018-05-12T01:36:37.563Z,17.90
2018-05-12T01:37:40.052Z,16.55
2018-05-12T01:38:43.334Z,13.02
2018-05-12T01:39:46.617Z,18.00
2018-05-12T01:40:49.116Z,18.50
2018-05-12T01:41:51.612Z,14.00
2018-05-12T01:42:54.102Z,14.35
2018-05-12T01:43:56.615Z,13.02
2018-05-12T01:44:59.876Z,19.60
2018-05-12T01:46:03.157Z,18.23
2018-05-12T01:47:05.667Z,12.95
2018-05-12T01:48:08.210Z,13.07
2018-05-12T01:49:10.728Z,15.57
2018-05-12T01:50:13.355Z,16.48
2018-05-12T01:51:15.843Z,15.80
2018-05-12T01:52:19.092Z,15.20
2018-05-12T01:53:21.611Z,13.05
2018-05-12T01:54:24.102Z,14.07
2018-05-12T01:55:26.611Z,14.15
2018-05-12T01:56:29.114Z,13.95
2018-05-12T01:57:32.380Z,15.30
2018-05-12T01:58:34.881Z,14.30
2018-05-12T01:59:37.393Z,14.73
2018-05-12T02:00:39.905Z,14.95
2018-05-12T02:01:43.158Z,14.90
2018-05-12T02:02:45.662Z,16.20
2018-05-12T02:03:48.946Z,18.92
2018-05-12T02:04:51.509Z,19.45
2018-05-12T02:05:54.015Z,13.32
2018-05-12T02:06:56.517Z,15.57
2018-05-12T02:07:59.012Z,13.80
2018-05-12T02:09:01.505Z,21.40
2018-05-12T02:10:04.808Z,15.38
2018-05-12T02:11:08.079Z,17.30
2018-05-12T02:12:11.390Z,13.98
2018-05-12T02:13:13.907Z,12.65
2018-05-12T02:14:16.440Z,13.48
2018-05-12T02:15:18.964Z,15.27
2018-05-12T02:16:21.474Z,14.82
2018-05-12T02:17:23.973Z,13.05
2018-05-12T02:18:26.459Z,17.30
2018-05-12T02:19:28.973Z,16.65
2018-05-12T02:20:32.260Z,16.48
2018-05-12T02:21:35.530Z,13.88
2018-05-12T02:22:38.021Z,18.12
2018-05-12T02:23:41.292Z,15.85
2018-05-12T02:24:43.800Z,16.75
2018-05-12T02:25:46.326Z,21.98
2018-05-12T02:26:48.842Z,16.35
2018-05-12T02:27:51.334Z,16.27
2018-05-12T02:28:53.818Z,18.23
2018-05-12T02:29:56.302Z,18.80
2018-05-12T02:30:58.828Z,16.20
2018-05-12T02:32:01.317Z,14.80
2018-05-12T02:33:03.833Z,20.40
2018-05-12T02:34:07.088Z,14.07
2018-05-12T02:35:09.622Z,17.27
2018-05-12T02:36:12.119Z,14.55
2018-05-12T02:37:14.632Z,16.60
2018-05-12T02:38:17.902Z,17.02
2018-05-12T02:39:20.394Z,15.55
2018-05-12T02:40:23.674Z,17.15
2018-05-12T02:41:26.949Z,15.60
2018-05-12T02:42:29.457Z,14.85
2018-05-12T02:43:31.977Z,16.08
2018-05-12T02:44:34.484Z,14.25
2018-05-12T02:45:37.781Z,17.98
2018-05-12T02:46:40.338Z,15.57
2018-05-12T02:47:43.828Z,16.95
2018-05-12T02:48:47.106Z,14.05
2018-05-12T02:49:50.390Z,14.65
2018-05-12T02:50:52.923Z,14.95
2018-05-12T02:51:55.421Z,15.90
2018-05-12T02:52:57.926Z,13.48
2018-05-12T02:54:01.206Z,17.27
2018-05-12T02:55:04.482Z,17.60
2018-05-12T02:56:07.772Z,18.17
2018-05-12T02:57:10.297Z,16.10
2018-05-12T02:58:12.816Z,19.23
2018-05-12T02:59:16.102Z,15.35
2018-05-12T03:00:18.605Z,20.90
2018-05-12T03:01:21.122Z,20.35
2018-05-12T03:02:23.626Z,20.25
2018-05-12T03:03:26.906Z,19.42
2018-05-12T03:04:29.422Z,17.20
2018-05-12T03:05:31.917Z,22.00
2018-05-12T03:06:34.427Z,20.88
2018-05-12T03:07:37.693Z,18.65
2018-05-12T03:08:40.220Z,26.73
2018-05-12T03:09:42.711Z,22.67
2018-05-12T03:10:45.220Z,23.98
2018-05-12T03:11:48.500Z,22.15
2018-05-12T03:12:51.795Z,21.77
2018-05-12T03:13:55.062Z,22.75
2018-05-12T03:14:57.550Z,17.48
2018-05-12T03:16:00.827Z,21.60
2018-05-12T03:17:03.332Z,22.35
2018-05-12T03:18:05.835Z,19.17
2018-05-12T03:19:08.337Z,21.65
2018-05-12T03:20:10.872Z,25.00
2018-05-12T03:21:13.356Z,19.65
2018-05-12T03:22:15.846Z,20.62
2018-05-12T03:23:18.357Z,27.67
2018-05-12T03:24:20.850Z,27.02
2018-05-12T03:25:23.370Z,26.27
2018-05-12T03:26:25.970Z,26.30
2018-05-12T03:27:28.479Z,24.48
2018-05-12T03:28:30.985Z,20.12
2018-05-12T03:29:33.502Z,22.02
2018-05-12T03:30:35.999Z,24.33
2018-05-12T03:31:38.531Z,25.55
2018-05-12T03:32:41.014Z,20.58
2018-05-12T03:33:43.516Z,23.33
2018-05-12T03:34:46.036Z,24.92
2018-05-12T03:35:48.541Z,25.52
2018-05-12T03:36:51.034Z,21.30
2018-05-12T03:37:53.523Z,22.33
2018-05-12T03:38:56.830Z,26.42
2018-05-12T03:39:59.322Z,24.05
2018-05-12T03:41:01.817Z,28.75
2018-05-12T03:42:04.311Z,21.90
2018-05-12T03:43:06.819Z,24.58
2018-05-12T03:44:09.340Z,25.92
2018-05-12T03:45:11.895Z,22.73
2018-05-12T03:46:14.399Z,28.02
2018-05-12T03:47:16.922Z,26.58
2018-05-12T03:48:19.432Z,22.02
2018-05-12T03:49:21.942Z,30.12
2018-05-12T03:50:24.462Z,27.85
2018-05-12T03:51:26.945Z,25.80
2018-05-12T03:52:29.445Z,30.75
2018-05-12T03:53:31.937Z,21.87
2018-05-12T03:54:34.458Z,26.62
2018-05-12T03:55:37.729Z,32.97
2018-05-12T03:56:40.227Z,32.50
2018-05-12T03:57:43.496Z,29.70
2018-05-12T03:58:46.003Z,29.85
2018-05-12T03:59:48.517Z,34.58
2018-05-12T04:00:51.024Z,24.27
2018-05-12T04:01:54.299Z,27.27
2018-05-12T04:02:56.813Z,27.95
2018-05-12T04:03:59.319Z,25.27
2018-05-12T04:05:13.721Z,26.27
2018-05-12T04:06:28.078Z,29.63
2018-05-12T04:07:42.546Z,26.65
2018-05-12T04:08:56.979Z,27.95
2018-05-12T04:10:11.484Z,28.27
2018-05-12T04:12:51.545Z,37.90
2018-05-12T04:13:54.045Z,28.67
2018-05-12T04:14:57.310Z,28.38
2018-05-12T04:15:59.834Z,29.05
2018-05-12T04:17:02.324Z,23.25
2018-05-12T04:18:06.616Z,22.75
2018-05-12T04:19:09.129Z,21.23
2018-05-12T04:20:11.676Z,27.77
2018-05-12T04:21:14.193Z,24.02
2018-05-12T04:22:17.472Z,29.73
2018-05-12T04:23:19.993Z,25.17
2018-05-12T04:24:22.516Z,30.02
2018-05-12T04:25:25.809Z,20.70
2018-05-12T04:26:29.066Z,28.08
2018-05-12T04:27:31.579Z,16.55
2018-05-12T04:28:34.860Z,20.12
2018-05-12T04:29:38.148Z,23.95
2018-05-12T04:30:41.443Z,19.67
2018-05-12T04:31:43.949Z,17.20
2018-05-12T04:32:46.464Z,16.05
2018-05-12T04:33:48.962Z,17.02
2018-05-12T04:34:51.491Z,14.15
2018-05-12T04:35:54.012Z,14.38
2018-05-12T04:36:56.524Z,16.77
2018-05-12T04:37:59.026Z,13.45
2018-05-12T04:39:02.310Z,17.60
2018-05-12T04:40:05.579Z,17.40
2018-05-12T04:41:08.081Z,13.48
2018-05-12T04:42:11.378Z,15.77
2018-05-12T04:43:13.904Z,13.20
2018-05-12T04:44:16.424Z,13.40
2018-05-12T04:45:18.935Z,13.90
2018-05-12T04:46:21.430Z,12.52
2018-05-12T04:47:23.969Z,11.95
2018-05-12T04:48:26.479Z,14.27
2018-05-12T04:49:29.797Z,13.38
2018-05-12T04:50:32.315Z,12.95
2018-05-12T04:51:34.815Z,19.87
2018-05-12T04:52:38.084Z,11.70
2018-05-12T04:53:40.579Z,19.77
2018-05-12T04:54:43.880Z,12.90
2018-05-12T04:55:46.398Z,13.20
2018-05-12T04:56:48.899Z,12.88
2018-05-12T04:57:52.210Z,17.30
2018-05-12T04:58:54.734Z,14.02
2018-05-12T04:59:57.231Z,15.18
2018-05-12T05:01:00.541Z,12.23
2018-05-12T05:02:03.056Z,14.27
2018-05-12T05:03:05.550Z,10.85
2018-05-12T05:04:08.068Z,20.45
2018-05-12T05:05:10.583Z,15.15
2018-05-12T05:06:13.085Z,12.05
2018-05-12T05:07:15.584Z,15.15
2018-05-12T05:08:18.115Z,12.23
2018-05-12T05:09:21.386Z,11.85
2018-05-12T05:10:24.666Z,12.48
2018-05-12T05:11:27.183Z,16.25
2018-05-12T05:12:29.700Z,14.48
2018-05-12T05:13:32.220Z,13.65
2018-05-12T05:14:34.733Z,13.20
2018-05-12T05:15:37.250Z,12.70
2018-05-12T05:16:40.516Z,11.30
2018-05-12T05:17:43.778Z,15.17
2018-05-12T05:18:46.330Z,11.33
2018-05-12T05:19:48.845Z,10.53
2018-05-12T05:20:51.361Z,10.30
2018-05-12T05:21:53.859Z,11.17
2018-05-12T05:22:56.357Z,11.83
2018-05-12T05:23:58.862Z,11.87
2018-05-12T05:25:01.369Z,11.27
2018-05-12T05:26:03.866Z,12.50
2018-05-12T05:27:06.367Z,17.03
2018-05-12T05:28:08.883Z,11.80
2018-05-12T05:29:11.454Z,11.03
2018-05-12T05:30:13.970Z,11.80
2018-05-12T05:31:17.242Z,13.03
2018-05-12T05:32:20.545Z,10.93
2018-05-12T05:33:23.809Z,13.70
2018-05-12T05:34:26.325Z,11.57
2018-05-12T05:35:28.837Z,12.33
2018-05-12T05:36:31.346Z,10.70
2018-05-12T05:37:34.608Z,19.77
2018-05-12T05:38:37.863Z,9.80
2018-05-12T05:39:40.388Z,12.77
2018-05-12T05:40:43.672Z,10.90
2018-05-12T05:41:46.974Z,10.30
2018-05-12T05:42:50.225Z,9.40
2018-05-12T05:43:52.721Z,11.10
2018-05-12T05:44:55.250Z,10.17
2018-05-12T05:45:57.752Z,10.07
2018-05-12T05:47:00.268Z,12.00
2018-05-12T05:48:02.778Z,10.17
2018-05-12T05:49:05.292Z,10.60
2018-05-12T05:50:07.817Z,13.20
2018-05-12T05:51:10.316Z,13.73
2018-05-12T05:52:13.578Z,9.73
2018-05-12T05:53:16.089Z,10.27
2018-05-12T05:54:18.584Z,10.00
2018-05-12T05:55:21.105Z,10.50
2018-05-12T05:56:23.592Z,11.83
2018-05-12T05:57:26.839Z,9.57
2018-05-12T05:58:29.348Z,12.80
2018-05-12T05:59:32.594Z,9.73
2018-05-12T06:00:35.123Z,12.20
2018-05-12T06:01:37.639Z,16.33
2018-05-12T06:02:40.137Z,13.00
2018-05-12T06:03:43.404Z,14.00
2018-05-12T06:04:45.900Z,10.97
2018-05-12T06:05:49.168Z,9.33
2018-05-12T06:06:53.206Z,11.30
2018-05-12T06:07:56.465Z,10.07
2018-05-12T06:08:58.967Z,12.13
2018-05-12T06:10:01.473Z,10.43
2018-05-12T06:11:03.991Z,11.00
2018-05-12T06:12:07.255Z,10.17
2018-05-12T06:13:09.749Z,12.60
2018-05-12T06:14:13.019Z,13.93
2018-05-12T06:15:15.638Z,16.93
2018-05-12T06:16:18.176Z,13.43
2018-05-12T06:17:21.489Z,10.97
2018-05-12T06:18:24.003Z,11.40
2018-05-12T06:19:26.531Z,15.03
2018-05-12T06:20:29.046Z,16.67
2018-05-12T06:21:31.557Z,8.43
2018-05-12T06:22:34.845Z,9.57
2018-05-12T06:23:38.112Z,9.10
2018-05-12T06:24:40.605Z,11.63
2018-05-12T06:25:43.900Z,11.87
2018-05-12T06:26:46.417Z,9.60
2018-05-12T06:27:48.994Z,11.73
2018-05-12T06:28:51.426Z,11.03
2018-05-12T06:29:53.949Z,10.60
2018-05-12T06:30:56.482Z,9.43
2018-05-12T06:31:58.977Z,10.53
2018-05-12T06:33:01.466Z,9.80
2018-05-12T06:34:03.963Z,11.00
2018-05-12T06:35:06.481Z,9.23
2018-05-12T06:36:08.987Z,11.30
2018-05-12T06:37:12.303Z,11.67
2018-05-12T06:38:14.791Z,10.10
2018-05-12T06:39:17.315Z,8.20
2018-05-12T06:40:20.592Z,15.77
2018-05-12T06:41:23.139Z,9.97
2018-05-12T06:42:25.625Z,11.10
2018-05-12T06:43:28.133Z,11.63
2018-05-12T06:44:31.421Z,10.30
2018-05-12T06:45:33.935Z,9.60
2018-05-12T06:46:36.445Z,11.27
2018-05-12T06:47:39.754Z,8.40
2018-05-12T06:48:42.253Z,9.60
2018-05-12T06:49:44.759Z,9.87
2018-05-12T06:50:47.393Z,8.20
2018-05-12T06:51:49.827Z,9.20
2018-05-12T06:52:53.137Z,8.70
2018-05-12T06:53:56.337Z,8.50
2018-05-12T06:54:58.853Z,9.17
2018-05-12T06:56:01.362Z,8.20
2018-05-12T06:57:03.866Z,8.17
2018-05-12T06:58:06.602Z,8.83
2018-05-12T06:59:09.145Z,11.33
2018-05-12T07:00:11.664Z,10.87
2018-05-12T07:01:14.178Z,10.00
2018-05-12T07:02:17.497Z,8.40
2018-05-12T07:03:21.330Z,10.53
2018-05-12T07:04:23.836Z,8.17
2018-05-12T07:05:26.364Z,9.07
2018-05-12T07:06:29.611Z,10.87
2018-05-12T07:07:32.881Z,13.07
2018-05-12T07:08:35.392Z,8.40
2018-05-12T07:09:37.920Z,15.70
2018-05-12T07:10:40.428Z,8.17
2018-05-12T07:11:42.924Z,11.63
2018-05-12T07:12:45.450Z,8.83
2018-05-12T07:13:48.724Z,8.57
2018-05-12T07:14:51.257Z,9.90
2018-05-12T07:15:54.513Z,8.43
2018-05-12T07:16:57.329Z,10.10
2018-05-12T07:17:59.832Z,8.27
2018-05-12T07:19:02.342Z,9.40
2018-05-12T07:20:04.853Z,14.40
2018-05-12T07:21:07.359Z,15.00
2018-05-12T07:22:10.639Z,10.40
2018-05-12T07:23:13.929Z,11.07
2018-05-12T07:24:16.449Z,10.60
2018-05-12T07:25:18.963Z,10.30
2018-05-12T07:26:23.017Z,7.07
2018-05-12T07:27:25.559Z,10.10
2018-05-12T07:28:28.820Z,7.93
2018-05-12T07:29:32.853Z,9.57
2018-05-12T07:30:36.119Z,8.67
2018-05-12T07:31:38.639Z,11.13
2018-05-12T07:32:41.135Z,9.73
2018-05-12T07:33:43.652Z,12.20
2018-05-12T07:34:46.913Z,7.70
2018-05-12T07:35:49.484Z,13.47
2018-05-12T07:36:51.988Z,10.77
2018-05-12T07:37:54.507Z,8.00
2018-05-12T07:38:57.134Z,8.10
2018-05-12T07:39:59.606Z,9.20
2018-05-12T07:41:02.108Z,10.00
2018-05-12T07:42:04.631Z,8.27
2018-05-12T07:43:07.960Z,7.17
2018-05-12T07:44:10.567Z,7.90
2018-05-12T07:45:13.901Z,7.50
2018-05-12T07:46:16.396Z,8.13
2018-05-12T07:47:18.908Z,10.03
2018-05-12T07:48:22.166Z,6.97
2018-05-12T07:49:24.665Z,12.73
2018-05-12T07:50:27.200Z,7.93
2018-05-12T07:51:29.749Z,7.30
2018-05-12T07:52:33.015Z,6.93
2018-05-12T07:53:36.313Z,5.90
2018-05-12T07:54:38.830Z,13.60
2018-05-12T07:55:41.365Z,6.60
2018-05-12T07:56:43.854Z,7.53
2018-05-12T07:57:46.570Z,8.10
2018-05-12T07:58:49.841Z,7.07
2018-05-12T07:59:52.349Z,7.67
2018-05-12T08:00:55.625Z,8.77
2018-05-12T08:01:58.136Z,8.10
2018-05-12T08:03:00.645Z,10.63
2018-05-12T08:04:03.149Z,6.78
2018-05-12T08:05:06.452Z,9.00
2018-05-12T08:06:08.974Z,11.17
2018-05-12T08:07:11.482Z,8.40
2018-05-12T08:08:14.749Z,11.30
2018-05-12T08:09:18.756Z,9.60
2018-05-12T08:10:21.297Z,6.40
2018-05-12T08:11:23.800Z,6.57
2018-05-12T08:12:26.324Z,8.57
2018-05-12T08:13:28.839Z,7.10
2018-05-12T08:14:32.117Z,6.53
2018-05-12T08:15:34.640Z,6.37
2018-05-12T08:16:37.165Z,7.17
2018-05-12T08:17:39.669Z,8.27
2018-05-12T08:18:42.200Z,6.27
2018-05-12T08:19:44.717Z,9.93
2018-05-12T08:20:47.224Z,6.73
2018-05-12T08:21:49.718Z,6.07
2018-05-12T08:22:53.005Z,5.80
2018-05-12T08:23:56.277Z,7.43
2018-05-12T08:24:58.779Z,5.83
2018-05-12T08:26:02.065Z,8.50
2018-05-12T08:27:04.614Z,7.30
2018-05-12T08:28:07.096Z,7.63
2018-05-12T08:29:09.624Z,9.83
2018-05-12T08:30:12.152Z,12.60
2018-05-12T08:31:15.458Z,6.60
2018-05-12T08:32:17.961Z,6.80
2018-05-12T08:33:20.487Z,5.83
2018-05-12T08:34:23.031Z,7.50
2018-05-12T08:35:25.559Z,8.20
2018-05-12T08:36:28.090Z,8.30
2018-05-12T08:37:31.365Z,9.30
2018-05-12T08:38:34.648Z,8.13
2018-05-12T08:39:37.144Z,6.67
2018-05-12T08:40:40.409Z,8.53
2018-05-12T08:41:42.925Z,6.10
2018-05-12T08:42:45.445Z,6.53
2018-05-12T08:43:47.931Z,9.43
2018-05-12T08:44:51.210Z,7.33
2018-05-12T08:45:54.487Z,7.43
2018-05-12T08:46:56.975Z,6.70
2018-05-12T08:47:59.483Z,7.87
2018-05-12T08:49:01.998Z,6.27
2018-05-12T08:50:04.496Z,8.10
2018-05-12T08:51:07.865Z,7.83
2018-05-12T08:52:10.369Z,7.33
2018-05-12T08:53:12.873Z,8.90
2018-05-12T08:54:15.388Z,7.77
2018-05-12T08:55:18.679Z,9.93
2018-05-12T08:56:21.981Z,7.33
2018-05-12T08:57:25.435Z,6.07
2018-05-12T08:58:28.059Z,4.80
2018-05-12T08:59:30.569Z,5.03
2018-05-12T09:00:33.096Z,10.33
2018-05-12T09:01:35.584Z,6.33
2018-05-12T09:02:38.096Z,5.17
2018-05-12T09:03:40.604Z,8.00
2018-05-12T09:04:44.060Z,8.30
2018-05-12T09:05:46.625Z,12.07
2018-05-12T09:06:49.105Z,4.17
2018-05-12T09:07:51.615Z,9.13
2018-05-12T09:08:54.154Z,6.77
2018-05-12T09:09:56.756Z,9.93
2018-05-12T09:10:59.258Z,5.73
2018-05-12T09:12:01.772Z,7.60
2018-05-12T09:13:05.053Z,7.60
2018-05-12T09:14:07.555Z,9.13
2018-05-12T09:15:10.069Z,8.00
2018-05-12T09:16:12.653Z,7.27
2018-05-12T09:17:15.155Z,8.03
2018-05-12T09:18:18.461Z,8.70
2018-05-12T09:19:21.010Z,7.90
2018-05-12T09:20:23.500Z,9.40
2018-05-12T09:21:26.035Z,7.07
2018-05-12T09:22:28.522Z,11.23
2018-05-12T09:23:31.816Z,6.63
2018-05-12T09:24:35.077Z,7.37
2018-05-12T09:25:37.590Z,7.80
2018-05-12T09:26:40.115Z,13.03
2018-05-12T09:27:42.624Z,7.70
2018-05-12T09:28:45.149Z,8.27
2018-05-12T09:29:47.665Z,8.73
2018-05-12T09:30:50.178Z,10.43
2018-05-12T09:31:52.692Z,7.33
2018-05-12T09:32:55.964Z,8.40
2018-05-12T09:33:59.992Z,9.80
2018-05-12T09:35:03.296Z,7.57
2018-05-12T09:36:05.798Z,8.90
2018-05-12T09:37:08.311Z,9.10
2018-05-12T09:38:11.638Z,16.70
2018-05-12T09:39:14.233Z,11.87
2018-05-12T09:40:16.738Z,10.37
2018-05-12T09:41:19.231Z,8.80
2018-05-12T09:42:21.951Z,7.50
2018-05-12T09:43:24.485Z,8.10
2018-05-12T09:44:26.997Z,9.70
2018-05-12T09:45:29.499Z,7.13
2018-05-12T09:46:32.759Z,9.53
2018-05-12T09:47:35.266Z,6.00
2018-05-12T09:48:38.535Z,10.23
2018-05-12T09:49:41.821Z,11.17
2018-05-12T09:50:45.912Z,12.83
2018-05-12T09:51:48.462Z,11.67
2018-05-12T09:52:50.981Z,10.37
2018-05-12T09:53:54.262Z,7.97
2018-05-12T09:54:56.778Z,8.80
2018-05-12T09:55:59.275Z,6.00
2018-05-12T09:57:01.808Z,9.10
2018-05-12T09:58:04.324Z,12.17
2018-05-12T09:59:06.865Z,7.30
2018-05-12T10:00:09.389Z,5.40
2018-05-12T10:01:11.893Z,8.50
2018-05-12T10:02:14.467Z,8.70
2018-05-12T10:03:16.972Z,10.37
2018-05-12T10:04:19.487Z,8.30
2018-05-12T10:05:22.774Z,8.17
2018-05-12T10:06:26.032Z,8.40
2018-05-12T10:07:28.516Z,7.63
2018-05-12T10:08:31.036Z,7.30
2018-05-12T10:09:33.589Z,9.20
2018-05-12T10:10:36.088Z,7.63
2018-05-12T10:11:38.631Z,8.30
2018-05-12T10:12:41.174Z,11.40
2018-05-12T10:13:43.675Z,8.57
2018-05-12T10:14:46.193Z,9.50
2018-05-12T10:15:48.743Z,9.70
2018-05-12T10:16:51.254Z,10.07
2018-05-12T10:17:54.531Z,7.40
2018-05-12T10:18:57.039Z,9.60
2018-05-12T10:20:00.303Z,8.60
2018-05-12T10:21:02.823Z,7.37
2018-05-12T10:22:05.343Z,8.57
2018-05-12T10:23:08.639Z,7.77
2018-05-12T10:24:12.055Z,7.63
2018-05-12T10:25:14.564Z,9.90
2018-05-12T10:26:17.179Z,6.33
2018-05-12T10:27:19.657Z,9.60
2018-05-12T10:28:22.172Z,12.10
2018-05-12T10:29:24.692Z,15.70
2018-05-12T10:30:27.981Z,13.73
2018-05-12T10:31:32.242Z,14.17
2018-05-12T10:32:34.745Z,9.40
2018-05-12T10:33:38.039Z,8.53
2018-05-12T10:34:41.324Z,10.83
2018-05-12T10:35:43.835Z,7.73
2018-05-12T10:36:46.508Z,10.30
2018-05-12T10:37:49.109Z,12.00
2018-05-12T10:38:51.693Z,14.23
2018-05-12T10:39:54.183Z,14.40
2018-05-12T10:40:57.457Z,9.10
2018-05-12T10:42:00.006Z,7.70
2018-05-12T10:43:02.540Z,9.77
2018-05-12T10:44:05.057Z,12.40
2018-05-12T10:45:07.599Z,9.53
2018-05-12T10:46:10.147Z,9.27
2018-05-12T10:47:12.696Z,11.10
2018-05-12T10:48:16.467Z,9.20
2018-05-12T10:49:19.981Z,11.60
2018-05-12T10:50:22.500Z,8.47
2018-05-12T10:51:25.046Z,8.90
2018-05-12T10:52:28.327Z,11.43
2018-05-12T10:53:31.611Z,8.90
2018-05-12T10:54:34.913Z,7.47
2018-05-12T10:55:38.190Z,8.20
2018-05-12T10:56:42.231Z,10.13
2018-05-12T10:57:44.869Z,5.37
2018-05-12T10:58:48.155Z,6.00
2018-05-12T10:59:51.432Z,6.07
2018-05-12T11:00:53.949Z,7.10
2018-05-12T11:01:56.521Z,8.70
2018-05-12T11:02:58.993Z,6.03
2018-05-12T11:04:01.518Z,7.40
2018-05-12T11:05:04.009Z,7.07
2018-05-12T11:06:07.285Z,9.17
2018-05-12T11:07:09.877Z,6.40
2018-05-12T11:08:13.168Z,7.30
2018-05-12T11:09:16.573Z,8.00
2018-05-12T11:10:19.131Z,10.30
2018-05-12T11:11:22.398Z,5.67
2018-05-12T11:12:25.705Z,4.73
2018-05-12T11:13:29.907Z,8.73
2018-05-12T11:14:33.175Z,7.73
2018-05-12T11:15:35.794Z,8.27
2018-05-12T11:16:38.360Z,8.13
2018-05-12T11:17:40.893Z,10.27
2018-05-12T11:18:43.422Z,11.90
2018-05-12T11:19:45.944Z,9.93
2018-05-12T11:20:49.281Z,8.07
2018-05-12T11:21:51.895Z,18.30
2018-05-12T11:22:55.103Z,7.57
2018-05-12T11:23:58.380Z,9.53
2018-05-12T11:25:01.649Z,7.40
2018-05-12T11:26:04.176Z,9.77
2018-05-12T11:27:07.969Z,8.80
2018-05-12T11:28:10.549Z,8.20
2018-05-12T11:29:13.066Z,9.37
2018-05-12T11:30:15.596Z,10.67
2018-05-12T11:31:18.136Z,9.30
2018-05-12T11:32:20.672Z,9.20
2018-05-12T11:33:23.221Z,14.00
2018-05-12T11:34:25.757Z,10.50
2018-05-12T11:35:28.271Z,10.43
2018-05-12T11:36:30.824Z,10.27
2018-05-12T11:37:33.328Z,6.80
2018-05-12T11:38:35.870Z,11.27
2018-05-12T11:39:38.380Z,8.60
2018-05-12T11:40:40.912Z,10.50
2018-05-12T11:41:43.434Z,14.20
2018-05-12T11:42:46.709Z,18.00
2018-05-12T11:43:49.268Z,12.60
2018-05-12T11:44:52.504Z,8.50
2018-05-12T11:45:55.018Z,11.63
2018-05-12T11:46:57.540Z,12.70
2018-05-12T11:48:00.031Z,9.63
2018-05-12T11:49:02.545Z,11.37
2018-05-12T11:50:05.100Z,15.50
2018-05-12T11:51:07.579Z,10.30
2018-05-12T11:52:10.117Z,10.40
2018-05-12T11:53:12.642Z,14.33
2018-05-12T11:54:15.994Z,12.07
2018-05-12T11:55:18.512Z,10.03
2018-05-12T11:56:21.043Z,9.30
2018-05-12T11:57:23.581Z,17.30
2018-05-12T11:58:26.086Z,9.07
2018-05-12T11:59:28.642Z,10.60
2018-05-12T12:00:31.173Z,12.37
2018-05-12T12:01:34.541Z,11.03
2018-05-12T12:02:37.071Z,7.93
2018-05-12T12:03:39.676Z,14.57
2018-05-12T12:04:42.132Z,13.90
2018-05-12T12:05:44.648Z,11.00
2018-05-12T12:06:47.173Z,14.03
2018-05-12T12:07:49.696Z,11.70
2018-05-12T12:08:52.197Z,9.57
2018-05-12T12:09:54.722Z,12.90
2018-05-12T12:10:58.016Z,14.00
2018-05-12T12:12:01.394Z,13.00
2018-05-12T12:13:04.681Z,8.33
2018-05-12T12:14:07.953Z,10.00
2018-05-12T12:15:10.544Z,14.37
2018-05-12T12:16:13.817Z,12.40
2018-05-12T12:17:16.370Z,10.70
2018-05-12T12:18:18.911Z,9.53
2018-05-12T12:19:21.450Z,11.17
2018-05-12T12:20:25.576Z,11.80
2018-05-12T12:21:28.071Z,10.33
2018-05-12T12:22:30.569Z,10.63
2018-05-12T12:23:33.080Z,9.60
2018-05-12T12:24:35.620Z,7.10
2018-05-12T12:25:38.916Z,8.47
2018-05-12T12:26:42.201Z,9.20
2018-05-12T12:27:44.713Z,4.77
2018-05-12T12:28:48.127Z,8.83
2018-05-12T12:29:50.650Z,9.60
2018-05-12T12:30:53.931Z,7.83
2018-05-12T12:31:56.575Z,15.03
2018-05-12T12:32:59.072Z,6.50
2018-05-12T12:34:01.621Z,6.83
2018-05-12T12:35:04.156Z,9.90
2018-05-12T12:36:06.789Z,8.70
2018-05-12T12:37:10.144Z,8.10
2018-05-12T12:38:12.685Z,8.83
2018-05-12T12:39:15.188Z,7.60
2018-05-12T12:40:17.730Z,8.23
2018-05-12T12:41:20.249Z,8.80
2018-05-12T12:42:22.770Z,12.03
2018-05-12T12:43:25.263Z,11.50
2018-05-12T12:44:27.779Z,5.87
2018-05-12T12:45:31.068Z,5.07
2018-05-12T12:46:34.375Z,21.93
2018-05-12T12:47:36.868Z,11.13
2018-05-12T12:48:39.387Z,10.97
2018-05-12T12:49:42.643Z,13.80
2018-05-12T12:50:45.161Z,7.57
2018-05-12T12:51:48.538Z,6.87
2018-05-12T12:52:51.013Z,5.60
2018-05-12T12:53:54.275Z,7.60
2018-05-12T12:54:56.777Z,8.63
2018-05-12T12:56:00.265Z,5.90
2018-05-12T12:57:03.545Z,7.63
2018-05-12T12:58:06.049Z,7.53
2018-05-12T12:59:08.545Z,11.73
2018-05-12T13:00:11.076Z,7.80
2018-05-12T13:01:13.598Z,8.67
2018-05-12T13:02:16.276Z,7.77
2018-05-12T13:03:18.781Z,7.33
2018-05-12T13:04:21.348Z,7.30
2018-05-12T13:05:23.837Z,8.50
2018-05-12T13:06:27.089Z,5.60
2018-05-12T13:07:29.627Z,7.10
2018-05-12T13:08:32.118Z,5.80
2018-05-12T13:09:34.628Z,5.40
2018-05-12T13:10:37.945Z,5.37
2018-05-12T13:11:40.508Z,5.17
2018-05-12T13:12:42.941Z,6.70
2018-05-12T13:13:45.470Z,6.77
2018-05-12T13:14:47.991Z,5.20
2018-05-12T13:15:51.359Z,5.40
2018-05-12T13:16:53.790Z,8.40
2018-05-12T13:17:56.309Z,6.00
2018-05-12T13:18:59.567Z,5.97
2018-05-12T13:20:02.138Z,5.83
2018-05-12T13:21:05.367Z,4.67
2018-05-12T13:22:08.688Z,16.20
2018-05-12T13:23:11.228Z,5.47
2018-05-12T13:24:14.490Z,7.43
2018-05-12T13:25:17.016Z,6.13
2018-05-12T13:26:19.540Z,5.73
2018-05-12T13:27:22.064Z,5.97
2018-05-12T13:28:24.593Z,6.93
2018-05-12T13:29:27.099Z,6.63
2018-05-12T13:30:29.632Z,5.03
2018-05-12T13:31:32.908Z,6.30
2018-05-12T13:32:35.419Z,8.93
2018-05-12T13:33:38.040Z,6.10
2018-05-12T13:34:40.504Z,7.27
2018-05-12T13:35:43.032Z,5.70
2018-05-12T13:36:45.573Z,5.63
2018-05-12T13:37:48.875Z,4.60
2018-05-12T13:38:52.187Z,6.33
2018-05-12T13:39:54.726Z,8.70
2018-05-12T13:40:57.240Z,8.73